チェンナイ の空港の天気 - METARとTAF

チェンナイ国際空港 ( VOMM / MAA ) - インド チェンナイ
飛行場実況気象(Metar)
観測時間03/26 12:30 IST (03/26 07:00 UTC)
風向・風速東南東 4m/s
視程5000m
天気現象煙霧
なし
気温33℃
湿度49%
気圧1012hPa
METARVOMM 260700Z 12008KT 5000 HZ NSC 33/21 Q1012 NOSIG
過去の天気等 Google飛行場航空写真 Wunderground天気予報

過去48時間のMETAR

飛行場予報(TAF)
発表時間: 3/26 10:30 IST (3/26 05:00 UTC)
予報対象時間: 26日11時 IST ~ 27日17時 IST
風向・風速南東 3m/s
視程6,000m
少しの雲 雲底高度 610m
27日2時 IST ~ 27日3時 IST に徐々に
風向・風速静穏
視程4,000m
天気現象もや
27日8時 IST ~ 27日9時 IST に徐々に
風向・風速南東 3m/s
視程6,000m
TAF VOMM 260500Z 2606/2712 14005KT 6000 FEW020
BECMG 2621/2622 00000KT 4000 BR
BECMG 2703/2704 14005KT 6000